createdAt,value
2019-04-27T00:00:53.523Z,80.50
2019-04-27T00:03:27.994Z,76.37
2019-04-27T00:06:08.460Z,81.93
2019-04-27T00:08:43.118Z,75.70
2019-04-27T00:11:16.557Z,80.27
2019-04-27T00:13:43.966Z,78.37
2019-04-27T00:16:29.056Z,78.03
2019-04-27T00:19:06.419Z,84.17
2019-04-27T00:21:40.691Z,76.47
2019-04-27T00:24:07.822Z,89.40
2019-04-27T00:26:34.649Z,79.37
2019-04-27T00:29:03.710Z,91.77
2019-04-27T00:31:30.884Z,93.60
2019-04-27T00:33:57.613Z,69.43
2019-04-27T00:36:31.038Z,99.13
2019-04-27T00:39:11.799Z,96.10
2019-04-27T00:41:40.458Z,90.87
2019-04-27T00:44:07.394Z,91.27
2019-04-27T00:46:34.374Z,94.00
2019-04-27T00:49:01.309Z,101.33
2019-04-27T00:51:28.139Z,95.80
2019-04-27T00:53:55.134Z,88.90
2019-04-27T00:56:44.665Z,91.30
2019-04-27T00:59:40.098Z,85.90
2019-04-27T01:02:23.245Z,103.30
2019-04-27T01:04:50.618Z,88.60
2019-04-27T01:07:17.356Z,86.47
2019-04-27T01:09:44.225Z,96.20
2019-04-27T01:12:11.160Z,92.57
2019-04-27T01:14:38.022Z,93.17
2019-04-27T01:17:05.851Z,96.53
2019-04-27T01:19:32.678Z,82.40
2019-04-27T01:21:59.541Z,86.97
2019-04-27T01:24:26.286Z,93.47
2019-04-27T01:27:18.955Z,79.17
2019-04-27T01:29:45.807Z,89.20
2019-04-27T01:32:18.630Z,81.33
2019-04-27T01:34:45.895Z,81.77
2019-04-27T01:37:12.716Z,83.70
2019-04-27T01:39:39.570Z,88.40
2019-04-27T01:42:06.412Z,88.67
2019-04-27T01:44:33.231Z,83.63
2019-04-27T01:47:00.466Z,89.77
2019-04-27T01:49:27.268Z,92.90
2019-04-27T01:51:54.090Z,91.57
2019-04-27T01:54:22.907Z,92.50
2019-04-27T01:56:50.741Z,92.17
2019-04-27T01:59:17.467Z,93.70
2019-04-27T02:02:04.834Z,92.20
2019-04-27T02:05:04.920Z,90.70
2019-04-27T02:07:33.774Z,95.77
2019-04-27T02:10:00.541Z,96.20
2019-04-27T02:12:29.111Z,92.60
2019-04-27T02:14:56.115Z,97.60
2019-04-27T02:17:22.930Z,94.73
2019-04-27T02:19:49.658Z,94.33
2019-04-27T02:22:16.497Z,105.23
2019-04-27T02:24:43.209Z,100.87
2019-04-27T02:27:10.123Z,101.27
2019-04-27T02:30:05.544Z,103.33
2019-04-27T02:32:39.527Z,98.57
2019-04-27T02:35:09.396Z,100.43
2019-04-27T02:37:36.226Z,94.93
2019-04-27T02:40:15.382Z,99.37
2019-04-27T02:42:44.013Z,96.57
2019-04-27T02:45:10.945Z,96.87
2019-04-27T02:47:37.651Z,98.77
2019-04-27T02:50:04.676Z,99.90
2019-04-27T02:52:42.482Z,95.93
2019-04-27T02:55:09.795Z,90.87
2019-04-27T02:57:36.751Z,94.87
2019-04-27T03:00:04.766Z,89.70
2019-04-27T03:02:40.554Z,99.23
2019-04-27T03:05:07.538Z,93.60
2019-04-27T03:07:34.357Z,106.37
2019-04-27T03:10:02.254Z,91.63
2019-04-27T03:12:34.749Z,98.70
2019-04-27T03:15:22.841Z,105.43
2019-04-27T03:18:19.507Z,94.83
2019-04-27T03:20:56.221Z,98.50
2019-04-27T03:23:23.291Z,100.40
2019-04-27T03:26:10.683Z,118.40
2019-04-27T03:28:40.141Z,104.77
2019-04-27T03:31:06.639Z,99.40
2019-04-27T03:33:33.988Z,106.77
2019-04-27T03:36:02.567Z,100.67
2019-04-27T03:38:30.241Z,103.73
2019-04-27T03:40:57.199Z,123.93
2019-04-27T03:43:24.477Z,105.90
2019-04-27T03:45:52.470Z,112.70
2019-04-27T03:48:20.501Z,103.07
2019-04-27T03:51:16.033Z,105.50
2019-04-27T03:53:57.465Z,103.97
2019-04-27T03:56:30.531Z,110.33
2019-04-27T03:59:06.776Z,112.23
2019-04-27T04:01:33.487Z,101.33
2019-04-27T04:04:00.327Z,102.10
2019-04-27T04:06:39.714Z,108.03
2019-04-27T04:09:07.200Z,102.70
2019-04-27T04:11:59.174Z,99.53
2019-04-27T04:14:26.027Z,94.30
2019-04-27T04:17:01.645Z,101.30
2019-04-27T04:19:25.535Z,87.60
2019-04-27T04:21:52.242Z,101.17
2019-04-27T04:24:19.907Z,101.83
2019-04-27T04:26:46.868Z,89.63
2019-04-27T04:29:13.677Z,85.67
2019-04-27T04:31:40.853Z,89.17
2019-04-27T04:34:09.685Z,83.13
2019-04-27T04:36:36.486Z,99.70
2019-04-27T04:39:05.562Z,87.17
2019-04-27T04:41:43.236Z,85.93
2019-04-27T04:44:23.092Z,87.10
2019-04-27T04:47:02.895Z,88.90
2019-04-27T04:49:30.839Z,83.60
2019-04-27T04:51:59.405Z,82.93
2019-04-27T04:54:26.390Z,82.17
2019-04-27T04:56:53.226Z,134.30
2019-04-27T04:59:20.291Z,125.40
2019-04-27T05:01:47.181Z,165.13
2019-04-27T05:04:15.855Z,100.23
2019-04-27T05:06:42.607Z,99.20
2019-04-27T05:09:09.399Z,101.40
2019-04-27T05:11:36.102Z,92.53
2019-04-27T05:14:03.095Z,81.70
2019-04-27T05:16:32.674Z,93.93
2019-04-27T05:18:59.362Z,96.50
2019-04-27T05:21:31.284Z,86.17
2019-04-27T05:23:58.654Z,87.80
2019-04-27T05:26:26.934Z,91.27
2019-04-27T05:28:53.613Z,90.60
2019-04-27T05:31:20.309Z,95.97
2019-04-27T05:33:48.868Z,87.50
2019-04-27T05:36:15.759Z,94.30
2019-04-27T05:38:45.841Z,87.90
2019-04-27T05:41:11.193Z,81.63
2019-04-27T05:43:46.979Z,91.33
2019-04-27T05:46:39.679Z,98.80
2019-04-27T05:49:09.681Z,93.60
2019-04-27T05:51:37.281Z,101.30
2019-04-27T05:54:05.046Z,90.63
2019-04-27T05:56:31.725Z,97.23
2019-04-27T05:59:00.373Z,118.70
2019-04-27T06:01:27.364Z,100.67
2019-04-27T06:03:54.150Z,104.00
2019-04-27T06:06:20.937Z,106.70
2019-04-27T06:08:49.363Z,100.30
2019-04-27T06:11:16.312Z,103.00
2019-04-27T06:13:44.437Z,102.47
2019-04-27T06:16:11.105Z,94.77
2019-04-27T06:18:39.212Z,97.33
2019-04-27T06:21:06.229Z,90.23
2019-04-27T06:23:32.900Z,92.97
2019-04-27T06:26:01.778Z,89.70
2019-04-27T06:28:29.319Z,87.47
2019-04-27T06:30:56.948Z,87.87
2019-04-27T06:33:31.969Z,82.87
2019-04-27T06:35:52.338Z,81.37
2019-04-27T06:38:19.140Z,77.10
2019-04-27T06:40:45.781Z,66.53
2019-04-27T06:43:12.482Z,66.37
2019-04-27T06:45:39.154Z,66.93
2019-04-27T06:48:05.949Z,67.00
2019-04-27T06:50:32.755Z,62.77
2019-04-27T06:52:59.589Z,72.80
2019-04-27T06:55:26.274Z,71.07
2019-04-27T06:57:53.069Z,58.87
2019-04-27T07:00:19.841Z,58.93
2019-04-27T07:02:46.920Z,51.77
2019-04-27T07:05:13.703Z,51.13
2019-04-27T07:07:40.408Z,41.63
2019-04-27T07:10:08.777Z,53.20
2019-04-27T07:12:35.446Z,48.30
2019-04-27T07:15:02.402Z,46.57
2019-04-27T07:17:29.306Z,37.37
2019-04-27T07:19:56.005Z,52.60
2019-04-27T07:22:22.700Z,39.40
2019-04-27T07:24:49.486Z,40.30
2019-04-27T07:27:16.287Z,35.50
2019-04-27T07:29:44.600Z,44.93
2019-04-27T07:32:11.678Z,38.73
2019-04-27T07:34:38.890Z,40.10
2019-04-27T07:37:05.709Z,44.23
2019-04-27T07:39:32.502Z,29.80
2019-04-27T07:41:59.258Z,32.30
2019-04-27T07:44:34.765Z,19.33
2019-04-27T07:47:21.408Z,34.33
2019-04-27T07:49:49.671Z,36.90
2019-04-27T07:52:18.952Z,31.70
2019-04-27T07:54:45.798Z,33.93
2019-04-27T07:57:12.637Z,31.43
2019-04-27T07:59:41.944Z,30.77
2019-04-27T08:02:08.630Z,32.97
2019-04-27T08:04:37.817Z,53.53
2019-04-27T08:07:04.604Z,32.83
2019-04-27T08:09:31.396Z,29.73
2019-04-27T08:11:58.697Z,32.00
2019-04-27T08:14:25.550Z,29.43
2019-04-27T08:16:52.237Z,27.80
2019-04-27T08:19:19.674Z,15.60
2019-04-27T08:21:46.690Z,26.67
2019-04-27T08:24:13.522Z,25.90
2019-04-27T08:26:49.865Z,39.00
2019-04-27T08:29:32.990Z,29.65
2019-04-27T08:32:05.345Z,26.23
2019-04-27T08:34:32.360Z,21.90
2019-04-27T08:37:00.787Z,44.17
2019-04-27T08:39:29.629Z,23.47
2019-04-27T08:41:56.398Z,27.10
2019-04-27T08:44:23.431Z,30.63
2019-04-27T08:46:50.123Z,17.00
2019-04-27T08:49:18.245Z,21.07
2019-04-27T08:51:56.273Z,16.83
2019-04-27T08:54:14.530Z,20.77
2019-04-27T08:56:41.206Z,21.77
2019-04-27T08:59:09.558Z,21.90
2019-04-27T09:01:39.340Z,17.80
2019-04-27T09:04:06.526Z,21.33
2019-04-27T09:06:37.487Z,13.83
2019-04-27T09:09:09.494Z,11.83
2019-04-27T09:11:49.420Z,11.30
2019-04-27T09:14:29.435Z,13.33
2019-04-27T09:17:22.066Z,22.57
2019-04-27T09:20:01.856Z,15.43
2019-04-27T09:22:28.961Z,13.35
2019-04-27T09:24:55.718Z,10.03
2019-04-27T09:27:22.504Z,10.13
2019-04-27T09:29:50.000Z,6.53
2019-04-27T09:32:16.908Z,12.20
2019-04-27T09:34:43.588Z,9.00
2019-04-27T09:37:10.360Z,7.83
2019-04-27T09:39:37.132Z,12.17
2019-04-27T09:42:03.945Z,6.43
2019-04-27T09:44:30.660Z,5.43
2019-04-27T09:46:57.341Z,6.20
2019-04-27T09:49:24.025Z,6.70
2019-04-27T09:51:50.817Z,6.00
2019-04-27T09:54:17.583Z,6.17
2019-04-27T09:56:44.257Z,3.03
2019-04-27T09:59:10.954Z,5.30
2019-04-27T10:01:37.630Z,5.67
2019-04-27T10:04:04.894Z,5.62
2019-04-27T10:06:31.786Z,7.23
2019-04-27T10:08:59.655Z,4.90
2019-04-27T10:11:26.560Z,3.57
2019-04-27T10:13:53.322Z,2.50
2019-04-27T10:16:20.459Z,3.60
2019-04-27T10:18:47.261Z,2.13
2019-04-27T10:21:13.980Z,2.80
2019-04-27T10:23:40.756Z,2.90
2019-04-27T10:26:07.509Z,4.57
2019-04-27T10:28:35.446Z,6.73
2019-04-27T10:31:03.015Z,3.10
2019-04-27T10:33:30.993Z,3.97
2019-04-27T10:35:57.672Z,4.03
2019-04-27T10:38:25.939Z,3.77
2019-04-27T10:40:53.446Z,2.77
2019-04-27T10:43:20.108Z,3.30
2019-04-27T10:45:46.922Z,4.37
2019-04-27T10:48:13.599Z,4.90
2019-04-27T10:50:40.566Z,2.80
2019-04-27T10:53:07.511Z,4.20
2019-04-27T10:55:34.179Z,2.83
2019-04-27T10:58:00.852Z,1.80
2019-04-27T11:00:34.346Z,9.13
2019-04-27T11:03:01.114Z,2.03
2019-04-27T11:05:33.864Z,1.30
2019-04-27T11:08:00.557Z,2.50
2019-04-27T11:10:29.058Z,3.10
2019-04-27T11:12:56.158Z,1.53
2019-04-27T11:15:23.715Z,2.07
2019-04-27T11:17:50.509Z,2.20
2019-04-27T11:20:17.516Z,2.47
2019-04-27T11:22:46.383Z,3.13
2019-04-27T11:25:13.487Z,3.27
2019-04-27T11:27:40.258Z,3.20
2019-04-27T11:30:08.143Z,6.03
2019-04-27T11:32:35.239Z,3.10
2019-04-27T11:35:36.605Z,2.67
2019-04-27T11:38:05.621Z,2.70
2019-04-27T11:40:32.876Z,1.77
2019-04-27T11:42:59.814Z,3.10
2019-04-27T11:45:28.490Z,3.73
2019-04-27T11:47:56.988Z,8.30
2019-04-27T11:50:25.626Z,2.33
2019-04-27T11:52:52.713Z,2.20
2019-04-27T11:55:19.855Z,2.30
2019-04-27T11:57:47.133Z,3.47
2019-04-27T12:00:17.970Z,3.08
2019-04-27T12:02:45.725Z,3.13
2019-04-27T12:05:13.206Z,6.17
2019-04-27T12:07:39.977Z,1.60
2019-04-27T12:10:07.384Z,2.90
2019-04-27T12:12:36.224Z,2.00
2019-04-27T12:15:05.711Z,2.40
2019-04-27T12:17:32.717Z,1.70
2019-04-27T12:19:59.407Z,3.10
2019-04-27T12:22:26.178Z,3.20
2019-04-27T12:24:52.970Z,4.77
2019-04-27T12:27:45.818Z,2.70
2019-04-27T12:30:29.336Z,2.10
2019-04-27T12:32:56.027Z,1.70
2019-04-27T12:35:23.214Z,2.80
2019-04-27T12:37:50.091Z,4.70
2019-04-27T12:40:16.797Z,1.77
2019-04-27T12:42:43.612Z,1.33
2019-04-27T12:45:10.769Z,2.13
2019-04-27T12:47:37.568Z,2.03
2019-04-27T12:50:07.253Z,1.53
2019-04-27T12:52:33.917Z,1.50
2019-04-27T12:55:11.055Z,2.40
2019-04-27T12:57:56.094Z,2.83
2019-04-27T13:00:26.642Z,3.17
2019-04-27T13:02:53.556Z,2.17
2019-04-27T13:05:20.435Z,2.13
2019-04-27T13:07:47.391Z,2.13
2019-04-27T13:14:02.758Z,1.40
2019-04-27T13:16:30.542Z,1.30
2019-04-27T13:18:57.504Z,2.07
2019-04-27T13:21:26.150Z,1.77
2019-04-27T13:24:02.119Z,2.50
2019-04-27T13:26:22.026Z,2.23
2019-04-27T13:28:48.699Z,2.20
2019-04-27T13:31:15.723Z,1.80
2019-04-27T13:33:44.093Z,2.70
2019-04-27T13:36:10.787Z,2.37
2019-04-27T13:38:37.485Z,1.60
2019-04-27T13:41:05.972Z,10.93
2019-04-27T13:43:39.467Z,21.73
2019-04-27T13:46:26.023Z,15.33
2019-04-27T13:49:19.590Z,11.17
2019-04-27T13:52:08.703Z,7.80
2019-04-27T13:54:35.620Z,11.43
2019-04-27T13:57:02.396Z,11.70
2019-04-27T13:59:29.093Z,8.93
2019-04-27T14:01:55.788Z,12.33
2019-04-27T14:04:24.123Z,4.30
2019-04-27T14:06:51.098Z,12.00
2019-04-27T14:09:17.902Z,6.07
2019-04-27T14:11:44.694Z,11.40
2019-04-27T14:14:11.634Z,7.93
2019-04-27T14:16:39.206Z,8.60
2019-04-27T14:19:06.312Z,5.37
2019-04-27T14:21:33.101Z,6.30
2019-04-27T14:24:00.120Z,5.93
2019-04-27T14:26:28.440Z,7.00
2019-04-27T14:28:58.255Z,5.10
2019-04-27T14:31:25.075Z,16.73
2019-04-27T14:33:52.436Z,2.63
2019-04-27T14:36:19.189Z,3.07
2019-04-27T14:38:46.074Z,3.03
2019-04-27T14:41:12.841Z,1.80
2019-04-27T14:43:39.647Z,2.47
2019-04-27T14:46:08.049Z,2.57
2019-04-27T14:48:34.887Z,22.87
2019-04-27T14:51:01.652Z,2.30
2019-04-27T14:53:28.434Z,2.83
2019-04-27T14:55:55.223Z,4.10
2019-04-27T14:58:22.031Z,2.60
2019-04-27T15:00:49.846Z,13.67
2019-04-27T15:03:16.773Z,5.70
2019-04-27T15:05:43.534Z,7.47
2019-04-27T15:08:10.206Z,4.17
2019-04-27T15:10:36.906Z,4.13
2019-04-27T15:13:06.410Z,5.57
2019-04-27T15:15:33.665Z,8.73
2019-04-27T15:18:04.457Z,5.37
2019-04-27T15:20:36.060Z,6.93
2019-04-27T15:23:04.004Z,6.40
2019-04-27T15:25:35.003Z,5.43
2019-04-27T15:28:01.713Z,3.73
2019-04-27T15:30:51.199Z,4.80
2019-04-27T15:33:46.686Z,7.60
2019-04-27T15:36:24.013Z,8.10
2019-04-27T15:38:53.777Z,6.23
2019-04-27T15:41:32.585Z,6.17
2019-04-27T15:44:05.905Z,5.97
2019-04-27T15:46:33.756Z,6.33
2019-04-27T15:48:58.954Z,12.63
2019-04-27T15:51:28.287Z,25.23
2019-04-27T15:53:55.218Z,12.40
2019-04-27T15:56:22.025Z,11.70
2019-04-27T15:58:48.807Z,7.13
2019-04-27T16:01:15.702Z,27.50
2019-04-27T16:03:42.419Z,7.97
2019-04-27T16:06:11.809Z,16.20
2019-04-27T16:08:44.941Z,18.30
2019-04-27T16:11:09.961Z,9.30
2019-04-27T16:13:35.969Z,7.97
2019-04-27T16:16:03.053Z,10.70
2019-04-27T16:18:32.618Z,8.80
2019-04-27T16:21:02.566Z,6.77
2019-04-27T16:23:28.240Z,4.73
2019-04-27T16:25:55.133Z,8.73
2019-04-27T16:28:21.917Z,8.50
2019-04-27T16:30:50.600Z,12.40
2019-04-27T16:33:21.992Z,9.60
2019-04-27T16:35:46.162Z,8.83
2019-04-27T16:38:26.672Z,9.40
2019-04-27T16:40:58.519Z,9.27
2019-04-27T16:43:23.873Z,10.13
2019-04-27T16:45:51.885Z,8.60
2019-04-27T16:48:18.633Z,8.67
2019-04-27T16:50:45.469Z,8.80
2019-04-27T16:53:12.599Z,8.40
2019-04-27T16:55:39.432Z,23.03
2019-04-27T16:58:09.794Z,82.23
2019-04-27T17:00:35.901Z,8.27
2019-04-27T17:03:05.148Z,139.27
2019-04-27T17:05:34.679Z,109.27
2019-04-27T17:08:00.601Z,80.90
2019-04-27T17:10:29.119Z,17.37
2019-04-27T17:12:56.114Z,16.80
2019-04-27T17:15:42.258Z,13.70
2019-04-27T17:18:28.491Z,12.23
2019-04-27T17:21:00.810Z,9.67
2019-04-27T17:23:31.113Z,8.43
2019-04-27T17:26:04.230Z,9.30
2019-04-27T17:28:33.456Z,5.10
2019-04-27T17:31:00.923Z,7.90
2019-04-27T17:33:31.760Z,7.67
2019-04-27T17:35:59.588Z,9.60
2019-04-27T17:38:26.540Z,8.30
2019-04-27T17:40:53.656Z,8.67
2019-04-27T17:43:20.565Z,8.00
2019-04-27T17:45:48.653Z,8.80
2019-04-27T17:48:15.478Z,10.40
2019-04-27T17:50:42.151Z,28.90
2019-04-27T17:53:08.849Z,18.83
2019-04-27T17:55:36.513Z,38.77
2019-04-27T17:58:05.207Z,30.40
2019-04-27T18:00:41.015Z,14.67
2019-04-27T18:03:01.185Z,9.80
2019-04-27T18:05:28.973Z,13.20
2019-04-27T18:07:57.865Z,17.47
2019-04-27T18:10:24.747Z,10.50
2019-04-27T18:12:51.735Z,12.27
2019-04-27T18:15:18.741Z,13.13
2019-04-27T18:17:51.882Z,14.47
2019-04-27T18:20:19.482Z,10.70
2019-04-27T18:22:50.003Z,15.97
2019-04-27T18:25:18.578Z,15.23
2019-04-27T18:27:50.672Z,15.50
2019-04-27T18:30:38.735Z,12.17
2019-04-27T18:33:05.841Z,11.47
2019-04-27T18:35:32.761Z,14.53
2019-04-27T18:38:01.704Z,17.77
2019-04-27T18:40:32.197Z,15.97
2019-04-27T18:45:44.878Z,13.03
2019-04-27T18:48:14.891Z,8.93
2019-04-27T18:50:58.081Z,7.03
2019-04-27T18:53:28.728Z,6.03
2019-04-27T18:55:58.425Z,16.20
2019-04-27T18:58:25.596Z,14.10
2019-04-27T19:00:52.375Z,8.40
2019-04-27T19:03:19.088Z,14.13
2019-04-27T19:05:45.868Z,14.87
2019-04-27T19:08:12.681Z,23.10
2019-04-27T19:10:39.456Z,11.83
2019-04-27T19:13:06.243Z,30.90
2019-04-27T19:15:32.933Z,16.80
2019-04-27T19:18:00.226Z,10.30
2019-04-27T19:20:28.779Z,8.40
2019-04-27T19:22:55.731Z,8.67
2019-04-27T19:25:50.335Z,10.07
2019-04-27T19:28:48.298Z,12.03
2019-04-27T19:31:22.426Z,13.83
2019-04-27T19:33:49.354Z,7.17
2019-04-27T19:36:16.323Z,7.80
2019-04-27T19:38:43.001Z,3.60
2019-04-27T19:41:10.033Z,4.23
2019-04-27T19:43:38.397Z,5.97
2019-04-27T19:46:05.498Z,8.73
2019-04-27T19:48:32.174Z,7.63
2019-04-27T19:51:00.214Z,3.97
2019-04-27T19:53:27.083Z,6.37
2019-04-27T19:56:02.682Z,5.80
2019-04-27T19:58:34.350Z,5.37
2019-04-27T20:01:11.870Z,10.90
2019-04-27T20:03:40.668Z,21.20
2019-04-27T20:06:08.359Z,12.90
2019-04-27T20:08:38.716Z,4.40
2019-04-27T20:11:05.397Z,7.67
2019-04-27T20:13:32.068Z,5.20
2019-04-27T20:16:00.835Z,8.33
2019-04-27T20:18:27.758Z,7.23
2019-04-27T20:20:54.445Z,7.73
2019-04-27T20:23:22.442Z,5.23
2019-04-27T20:25:50.114Z,5.00
2019-04-27T20:28:16.789Z,6.70
2019-04-27T20:30:43.925Z,3.53
2019-04-27T20:33:11.091Z,7.77
2019-04-27T20:35:37.966Z,7.83
2019-04-27T20:38:04.796Z,6.23
2019-04-27T20:40:31.682Z,3.60
2019-04-27T20:42:58.571Z,8.97
2019-04-27T20:45:25.244Z,10.77
2019-04-27T20:47:52.656Z,7.67
2019-04-27T20:50:19.705Z,4.40
2019-04-27T20:52:54.908Z,5.00
2019-04-27T20:55:21.982Z,5.90
2019-04-27T20:57:58.801Z,8.00
2019-04-27T21:00:19.630Z,9.97
2019-04-27T21:02:54.174Z,9.13
2019-04-27T21:05:31.037Z,38.87
2019-04-27T21:08:01.473Z,12.27
2019-04-27T21:10:30.790Z,8.77
2019-04-27T21:12:58.318Z,5.10
2019-04-27T21:15:27.203Z,3.83
2019-04-27T21:17:54.046Z,6.93
2019-04-27T21:20:21.902Z,5.73
2019-04-27T21:22:48.914Z,7.43
2019-04-27T21:25:16.199Z,6.80
2019-04-27T21:27:44.139Z,13.17
2019-04-27T21:30:11.528Z,7.60
2019-04-27T21:32:38.421Z,7.00
2019-04-27T21:35:05.310Z,7.77
2019-04-27T21:37:32.090Z,9.70
2019-04-27T21:40:17.151Z,5.37
2019-04-27T21:42:44.084Z,7.57
2019-04-27T21:45:11.325Z,6.90
2019-04-27T21:47:38.946Z,7.73
2019-04-27T21:50:06.762Z,7.37
2019-04-27T21:52:39.127Z,7.00
2019-04-27T21:55:07.146Z,6.40
2019-04-27T21:57:34.930Z,7.07
2019-04-27T22:00:02.285Z,7.00
2019-04-27T22:02:32.796Z,7.33
2019-04-27T22:04:59.783Z,8.17
2019-04-27T22:07:26.768Z,20.03
2019-04-27T22:09:53.427Z,49.67
2019-04-27T22:12:21.329Z,14.13
2019-04-27T22:14:48.129Z,6.43
2019-04-27T22:17:14.819Z,5.53
2019-04-27T22:19:45.622Z,8.87
2019-04-27T22:22:21.491Z,7.77
2019-04-27T22:24:48.186Z,7.83
2019-04-27T22:27:14.850Z,8.70
2019-04-27T22:29:41.547Z,8.23
2019-04-27T22:32:08.329Z,8.50
2019-04-27T22:34:35.046Z,7.20
2019-04-27T22:37:02.697Z,12.83
2019-04-27T22:39:52.466Z,8.90
2019-04-27T22:42:51.515Z,8.53
2019-04-27T22:45:22.706Z,12.30
2019-04-27T22:47:51.263Z,10.90
2019-04-27T22:50:18.066Z,9.73
2019-04-27T22:52:44.858Z,10.50
2019-04-27T22:55:11.887Z,8.37
2019-04-27T22:57:47.651Z,12.03
2019-04-27T23:03:08.883Z,10.10
2019-04-27T23:05:38.110Z,10.90
2019-04-27T23:08:04.981Z,11.90
2019-04-27T23:10:31.666Z,14.10
2019-04-27T23:12:58.458Z,8.63
2019-04-27T23:15:32.435Z,13.03
2019-04-27T23:18:02.988Z,12.77
2019-04-27T23:20:29.866Z,15.80
2019-04-27T23:22:57.909Z,10.93
2019-04-27T23:25:24.832Z,10.60
2019-04-27T23:27:51.695Z,13.27
2019-04-27T23:30:21.336Z,11.77
2019-04-27T23:32:51.324Z,17.63
2019-04-27T23:35:17.948Z,14.40
2019-04-27T23:37:44.752Z,13.63
2019-04-27T23:40:12.641Z,10.03
2019-04-27T23:42:39.434Z,9.43
2019-04-27T23:45:07.012Z,14.37
2019-04-27T23:47:33.718Z,14.10
2019-04-27T23:50:01.875Z,10.40
2019-04-27T23:52:47.127Z,9.07
2019-04-27T23:55:13.817Z,14.80
2019-04-27T23:57:40.513Z,14.97
